sensor_id;sensor_type;location;lat;lon;timestamp;pressure;altitude;pressure_sealevel;temperature;humidity
9893;BME280;4985;49.092;8.542;2022-12-11T00:00:36;98753.94;;;12.14;54.54
9893;BME280;4985;49.092;8.542;2022-12-11T00:03:04;98758.41;;;12.14;54.56
9893;BME280;4985;49.092;8.542;2022-12-11T00:05:31;98764.50;;;12.14;54.56
9893;BME280;4985;49.092;8.542;2022-12-11T00:07:58;98763.69;;;12.14;54.55
9893;BME280;4985;49.092;8.542;2022-12-11T00:10:25;98762.88;;;12.13;54.54
9893;BME280;4985;49.092;8.542;2022-12-11T00:12:51;98762.88;;;12.13;54.54
9893;BME280;4985;49.092;8.542;2022-12-11T00:15:18;98763.69;;;12.14;54.56
9893;BME280;4985;49.092;8.542;2022-12-11T00:17:44;98761.03;;;12.14;54.55
9893;BME280;4985;49.092;8.542;2022-12-11T00:20:12;98757.59;;;12.13;54.54
9893;BME280;4985;49.092;8.542;2022-12-11T00:22:39;98762.88;;;12.13;54.55
9893;BME280;4985;49.092;8.542;2022-12-11T00:25:06;98764.69;;;12.13;54.56
9893;BME280;4985;49.092;8.542;2022-12-11T00:27:33;98765.50;;;12.13;54.56
9893;BME280;4985;49.092;8.542;2022-12-11T00:30:00;98761.22;;;12.12;54.56
9893;BME280;4985;49.092;8.542;2022-12-11T00:32:26;98771.78;;;12.12;54.56
9893;BME280;4985;49.092;8.542;2022-12-11T00:34:53;98763.88;;;12.12;54.54
9893;BME280;4985;49.092;8.542;2022-12-11T00:37:21;98764.69;;;12.13;54.55
9893;BME280;4985;49.092;8.542;2022-12-11T00:39:47;98756.94;;;12.11;54.55
9893;BME280;4985;49.092;8.542;2022-12-11T00:42:14;98759.56;;;12.11;54.56
9893;BME280;4985;49.092;8.542;2022-12-11T00:44:41;98749.00;;;12.11;54.55
9893;BME280;4985;49.092;8.542;2022-12-11T00:47:07;98752.50;;;12.12;54.55
9893;BME280;4985;49.092;8.542;2022-12-11T00:49:34;98758.75;;;12.11;54.55
9893;BME280;4985;49.092;8.542;2022-12-11T00:52:00;98759.56;;;12.11;54.56
9893;BME280;4985;49.092;8.542;2022-12-11T00:54:28;98751.66;;;12.11;54.57
9893;BME280;4985;49.092;8.542;2022-12-11T00:56:55;98754.28;;;12.11;54.57
9893;BME280;4985;49.092;8.542;2022-12-11T00:59:21;98758.75;;;12.11;54.57
9893;BME280;4985;49.092;8.542;2022-12-11T01:01:48;98755.28;;;12.10;54.57
9893;BME280;4985;49.092;8.542;2022-12-11T01:04:14;98755.28;;;12.10;54.56
9893;BME280;4985;49.092;8.542;2022-12-11T01:06:41;98758.75;;;12.11;54.55
9893;BME280;4985;49.092;8.542;2022-12-11T01:09:07;98768.50;;;12.10;54.55
9893;BME280;4985;49.092;8.542;2022-12-11T01:11:53;98766.84;;;12.09;54.57
9893;BME280;4985;49.092;8.542;2022-12-11T01:14:20;98775.78;;;12.08;54.59
9893;BME280;4985;49.092;8.542;2022-12-11T01:16:46;98773.13;;;12.08;54.61
9893;BME280;4985;49.092;8.542;2022-12-11T01:19:13;98775.16;;;12.06;54.64
9893;BME280;4985;49.092;8.542;2022-12-11T01:21:40;98770.25;;;12.03;54.70
9893;BME280;4985;49.092;8.542;2022-12-11T01:24:06;98774.91;;;12.01;54.75
9893;BME280;4985;49.092;8.542;2022-12-11T01:26:33;98770.59;;;12.00;54.81
9893;BME280;4985;49.092;8.542;2022-12-11T01:29:01;98770.59;;;12.00;54.83
9893;BME280;4985;49.092;8.542;2022-12-11T01:31:28;98776.88;;;11.99;54.85
9893;BME280;4985;49.092;8.542;2022-12-11T01:33:54;98775.25;;;11.98;54.87
9893;BME280;4985;49.092;8.542;2022-12-11T01:36:22;98786.63;;;11.99;54.86
9893;BME280;4985;49.092;8.542;2022-12-11T01:38:48;98782.16;;;11.99;54.85
9893;BME280;4985;49.092;8.542;2022-12-11T01:41:16;98771.59;;;11.99;54.83
9893;BME280;4985;49.092;8.542;2022-12-11T01:44:01;98781.00;;;12.02;54.81
9893;BME280;4985;49.092;8.542;2022-12-11T01:46:30;98766.97;;;12.01;54.79
9893;BME280;4985;49.092;8.542;2022-12-11T01:48:57;98777.53;;;12.01;54.80
9893;BME280;4985;49.092;8.542;2022-12-11T01:51:26;98783.78;;;12.00;54.81
9893;BME280;4985;49.092;8.542;2022-12-11T01:53:58;98780.34;;;12.00;54.82
9893;BME280;4985;49.092;8.542;2022-12-11T01:56:26;98784.78;;;11.99;54.83
9893;BME280;4985;49.092;8.542;2022-12-11T01:58:59;98785.78;;;11.98;54.82
9893;BME280;4985;49.092;8.542;2022-12-11T02:01:34;98791.06;;;11.98;54.82
9893;BME280;4985;49.092;8.542;2022-12-11T02:04:03;98786.78;;;11.97;54.85
9893;BME280;4985;49.092;8.542;2022-12-11T02:06:33;98792.91;;;11.98;54.84
9893;BME280;4985;49.092;8.542;2022-12-11T02:09:01;98788.44;;;11.98;54.83
9893;BME280;4985;49.092;8.542;2022-12-11T02:11:33;98790.88;;;12.00;54.80
9893;BME280;4985;49.092;8.542;2022-12-11T02:14:05;98788.44;;;11.98;54.79
9893;BME280;4985;49.092;8.542;2022-12-11T02:16:40;98800.62;;;11.99;54.80
9893;BME280;4985;49.092;8.542;2022-12-11T02:19:19;98797.97;;;11.99;54.77
9893;BME280;4985;49.092;8.542;2022-12-11T02:21:49;98797.97;;;11.99;54.75
9893;BME280;4985;49.092;8.542;2022-12-11T02:24:27;98804.06;;;12.00;54.74
9893;BME280;4985;49.092;8.542;2022-12-11T02:27:07;98795.34;;;11.99;54.75
9893;BME280;4985;49.092;8.542;2022-12-11T02:29:43;98800.81;;;11.98;54.78
9893;BME280;4985;49.092;8.542;2022-12-11T02:32:16;98796.34;;;11.98;54.78
9893;BME280;4985;49.092;8.542;2022-12-11T02:34:48;98797.97;;;11.99;54.75
9893;BME280;4985;49.092;8.542;2022-12-11T02:37:19;98785.78;;;11.98;54.73
9893;BME280;4985;49.092;8.542;2022-12-11T02:39:49;98782.16;;;11.99;54.72
9893;BME280;4985;49.092;8.542;2022-12-11T02:42:18;98784.97;;;11.98;54.73
9893;BME280;4985;49.092;8.542;2022-12-11T02:44:48;98784.97;;;11.98;54.75
9893;BME280;4985;49.092;8.542;2022-12-11T02:47:17;98788.44;;;11.98;54.76
9893;BME280;4985;49.092;8.542;2022-12-11T02:49:47;98778.06;;;11.97;54.76
9893;BME280;4985;49.092;8.542;2022-12-11T02:52:17;98774.44;;;11.98;54.76
9893;BME280;4985;49.092;8.542;2022-12-11T02:54:46;98782.34;;;11.98;54.74
9893;BME280;4985;49.092;8.542;2022-12-11T02:57:17;98783.16;;;11.98;54.73
9893;BME280;4985;49.092;8.542;2022-12-11T02:59:48;98780.53;;;11.98;54.71
9893;BME280;4985;49.092;8.542;2022-12-11T03:02:15;98780.53;;;11.98;54.68
9893;BME280;4985;49.092;8.542;2022-12-11T03:04:45;98787.44;;;11.99;54.67
9893;BME280;4985;49.092;8.542;2022-12-11T03:07:14;98783.97;;;11.99;54.68
9893;BME280;4985;49.092;8.542;2022-12-11T03:09:45;98781.34;;;11.99;54.67
9893;BME280;4985;49.092;8.542;2022-12-11T03:12:14;98784.78;;;11.99;54.66
9893;BME280;4985;49.092;8.542;2022-12-11T03:14:42;98781.34;;;11.99;54.66
9893;BME280;4985;49.092;8.542;2022-12-11T03:17:14;98783.16;;;11.98;54.64
9893;BME280;4985;49.092;8.542;2022-12-11T03:19:47;98785.78;;;11.98;54.66
9893;BME280;4985;49.092;8.542;2022-12-11T03:22:18;98780.53;;;11.98;54.64
9893;BME280;4985;49.092;8.542;2022-12-11T03:24:49;98791.88;;;11.99;54.63
9893;BME280;4985;49.092;8.542;2022-12-11T03:27:23;98779.50;;;11.99;54.62
9893;BME280;4985;49.092;8.542;2022-12-11T03:29:54;98776.06;;;11.99;54.61
9893;BME280;4985;49.092;8.542;2022-12-11T03:32:27;98784.78;;;11.99;54.61
9893;BME280;4985;49.092;8.542;2022-12-11T03:34:58;98786.41;;;12.00;54.60
9893;BME280;4985;49.092;8.542;2022-12-11T03:37:28;98774.81;;;11.94;54.58
9893;BME280;4985;49.092;8.542;2022-12-11T03:39:59;98782.97;;;12.00;54.57
9893;BME280;4985;49.092;8.542;2022-12-11T03:42:28;98782.16;;;11.99;54.58
9893;BME280;4985;49.092;8.542;2022-12-11T03:44:57;98780.53;;;11.98;54.58
9893;BME280;4985;49.092;8.542;2022-12-11T03:47:27;98779.88;;;11.96;54.60
9893;BME280;4985;49.092;8.542;2022-12-11T03:49:56;98778.25;;;11.95;54.65
9893;BME280;4985;49.092;8.542;2022-12-11T03:52:24;98785.53;;;11.93;54.68
9893;BME280;4985;49.092;8.542;2022-12-11T03:54:52;98779.25;;;11.94;54.70
9893;BME280;4985;49.092;8.542;2022-12-11T03:57:21;98777.62;;;11.93;54.71
9893;BME280;4985;49.092;8.542;2022-12-11T03:59:51;98775.38;;;11.90;54.70
9893;BME280;4985;49.092;8.542;2022-12-11T04:02:17;98775.81;;;11.93;54.67
9893;BME280;4985;49.092;8.542;2022-12-11T04:04:45;98775.81;;;11.93;54.68
9893;BME280;4985;49.092;8.542;2022-12-11T04:07:12;98777.62;;;11.93;54.68
9893;BME280;4985;49.092;8.542;2022-12-11T04:09:38;98784.53;;;11.94;54.67
9893;BME280;4985;49.092;8.542;2022-12-11T04:12:05;98795.91;;;11.94;54.67
9893;BME280;4985;49.092;8.542;2022-12-11T04:14:32;98787.81;;;11.96;54.64
9893;BME280;4985;49.092;8.542;2022-12-11T04:17:12;98781.72;;;11.95;54.60
9893;BME280;4985;49.092;8.542;2022-12-11T04:20:01;98783.53;;;11.95;54.63
9893;BME280;4985;49.092;8.542;2022-12-11T04:22:45;98793.44;;;11.93;54.64
9893;BME280;4985;49.092;8.542;2022-12-11T04:25:35;98786.53;;;11.92;54.65
9893;BME280;4985;49.092;8.542;2022-12-11T04:28:01;98779.63;;;11.91;54.69
9893;BME280;4985;49.092;8.542;2022-12-11T04:30:28;98767.44;;;11.90;54.70
9893;BME280;4985;49.092;8.542;2022-12-11T04:32:55;98759.69;;;11.88;54.73
9893;BME280;4985;49.092;8.542;2022-12-11T04:35:23;98767.44;;;11.90;54.71
9893;BME280;4985;49.092;8.542;2022-12-11T04:37:51;98775.38;;;11.90;54.71
9893;BME280;4985;49.092;8.542;2022-12-11T04:40:18;98783.91;;;11.92;54.66
9893;BME280;4985;49.092;8.542;2022-12-11T04:42:45;98780.25;;;11.93;54.63
9893;BME280;4985;49.092;8.542;2022-12-11T04:45:12;98782.91;;;11.93;54.59
9893;BME280;4985;49.092;8.542;2022-12-11T04:47:39;98775.00;;;11.93;54.59
9893;BME280;4985;49.092;8.542;2022-12-11T04:50:11;98774.19;;;11.92;54.59
9893;BME280;4985;49.092;8.542;2022-12-11T04:52:40;98769.72;;;11.93;54.59
9893;BME280;4985;49.092;8.542;2022-12-11T04:55:07;98771.53;;;11.92;54.61
9893;BME280;4985;49.092;8.542;2022-12-11T04:57:34;98769.91;;;11.91;54.61
9893;BME280;4985;49.092;8.542;2022-12-11T05:00:01;98771.91;;;11.89;54.61
9893;BME280;4985;49.092;8.542;2022-12-11T05:02:28;98770.09;;;11.90;54.63
9893;BME280;4985;49.092;8.542;2022-12-11T05:04:55;98775.38;;;11.90;54.61
9893;BME280;4985;49.092;8.542;2022-12-11T05:07:22;98774.37;;;11.91;54.63
9893;BME280;4985;49.092;8.542;2022-12-11T05:09:50;98777.81;;;11.91;54.61
9893;BME280;4985;49.092;8.542;2022-12-11T05:12:16;98774.37;;;11.91;54.60
9893;BME280;4985;49.092;8.542;2022-12-11T05:14:43;98781.63;;;11.89;54.61
9893;BME280;4985;49.092;8.542;2022-12-11T05:17:09;98775.53;;;11.88;54.64
9893;BME280;4985;49.092;8.542;2022-12-11T05:19:36;98773.06;;;11.87;54.67
9893;BME280;4985;49.092;8.542;2022-12-11T05:22:03;98766.97;;;11.86;54.70
9893;BME280;4985;49.092;8.542;2022-12-11T05:24:29;98761.09;;;11.84;54.71
9893;BME280;4985;49.092;8.542;2022-12-11T05:26:57;98768.19;;;11.84;54.72
9893;BME280;4985;49.092;8.542;2022-12-11T05:29:24;98760.25;;;11.84;54.73
9893;BME280;4985;49.092;8.542;2022-12-11T05:31:50;98753.16;;;11.84;54.73
9893;BME280;4985;49.092;8.542;2022-12-11T05:34:17;98761.09;;;11.84;54.71
9893;BME280;4985;49.092;8.542;2022-12-11T05:36:43;98755.62;;;11.86;54.68
9893;BME280;4985;49.092;8.542;2022-12-11T05:39:10;98752.34;;;11.84;54.70
9893;BME280;4985;49.092;8.542;2022-12-11T05:41:37;98743.81;;;11.82;54.73
9893;BME280;4985;49.092;8.542;2022-12-11T05:44:05;98748.91;;;11.83;54.74
9893;BME280;4985;49.092;8.542;2022-12-11T05:46:32;98748.91;;;11.83;54.72
9893;BME280;4985;49.092;8.542;2022-12-11T05:49:01;98747.28;;;11.82;54.71
9893;BME280;4985;49.092;8.542;2022-12-11T05:51:29;98743.81;;;11.82;54.72
9893;BME280;4985;49.092;8.542;2022-12-11T05:53:56;98736.91;;;11.81;54.75
9893;BME280;4985;49.092;8.542;2022-12-11T05:56:24;98738.72;;;11.80;54.76
9893;BME280;4985;49.092;8.542;2022-12-11T05:58:52;98746.62;;;11.80;54.75
9893;BME280;4985;49.092;8.542;2022-12-11T06:01:22;98749.09;;;11.82;54.75
9893;BME280;4985;49.092;8.542;2022-12-11T06:03:49;98743.81;;;11.82;54.73
9893;BME280;4985;49.092;8.542;2022-12-11T06:06:16;98748.91;;;11.83;54.70
9893;BME280;4985;49.092;8.542;2022-12-11T06:08:42;98740.16;;;11.83;54.67
9893;BME280;4985;49.092;8.542;2022-12-11T06:11:11;98746.25;;;11.83;54.65
9893;BME280;4985;49.092;8.542;2022-12-11T06:13:38;98744.44;;;11.84;54.64
9893;BME280;4985;49.092;8.542;2022-12-11T06:16:06;98741.81;;;11.84;54.62
9893;BME280;4985;49.092;8.542;2022-12-11T06:18:36;98735.53;;;11.85;54.60
9893;BME280;4985;49.092;8.542;2022-12-11T06:21:11;98731.25;;;11.84;54.61
9893;BME280;4985;49.092;8.542;2022-12-11T06:23:37;98726.16;;;11.82;54.62
9893;BME280;4985;49.092;8.542;2022-12-11T06:26:04;98726.16;;;11.82;54.62
9893;BME280;4985;49.092;8.542;2022-12-11T06:28:31;98723.72;;;11.81;54.63
9893;BME280;4985;49.092;8.542;2022-12-11T06:30:58;98728.00;;;11.82;54.62
9893;BME280;4985;49.092;8.542;2022-12-11T06:33:24;98730.44;;;11.83;54.58
9893;BME280;4985;49.092;8.542;2022-12-11T06:35:52;98718.06;;;11.84;54.58
9893;BME280;4985;49.092;8.542;2022-12-11T06:38:19;98716.44;;;11.83;54.57
9893;BME280;4985;49.092;8.542;2022-12-11T06:40:53;98718.06;;;11.84;54.54
9893;BME280;4985;49.092;8.542;2022-12-11T06:43:20;98710.16;;;11.84;54.53
9893;BME280;4985;49.092;8.542;2022-12-11T06:45:46;98718.06;;;11.84;54.54
9893;BME280;4985;49.092;8.542;2022-12-11T06:48:13;98714.81;;;11.82;54.54
9893;BME280;4985;49.092;8.542;2022-12-11T06:50:39;98716.62;;;11.81;54.58
9893;BME280;4985;49.092;8.542;2022-12-11T06:53:08;98722.09;;;11.80;54.60
9893;BME280;4985;49.092;8.542;2022-12-11T06:55:35;98716.81;;;11.80;54.63
9893;BME280;4985;49.092;8.542;2022-12-11T06:58:02;98727.38;;;11.80;54.62
9893;BME280;4985;49.092;8.542;2022-12-11T07:00:29;98734.28;;;11.81;54.59
9893;BME280;4985;49.092;8.542;2022-12-11T07:02:56;98730.00;;;11.80;54.58
9893;BME280;4985;49.092;8.542;2022-12-11T07:05:22;98733.59;;;11.79;54.58
9893;BME280;4985;49.092;8.542;2022-12-11T07:07:49;98732.62;;;11.80;54.56
9893;BME280;4985;49.092;8.542;2022-12-11T07:10:19;98731.81;;;11.79;54.57
9893;BME280;4985;49.092;8.542;2022-12-11T07:12:46;98734.78;;;11.76;54.58
9893;BME280;4985;49.092;8.542;2022-12-11T07:15:12;98744.16;;;11.79;54.60
9893;BME280;4985;49.092;8.542;2022-12-11T07:17:39;98744.16;;;11.79;54.60
9893;BME280;4985;49.092;8.542;2022-12-11T07:20:06;98737.59;;;11.75;54.58
9893;BME280;4985;49.092;8.542;2022-12-11T07:22:33;98745.81;;;11.80;54.57
9893;BME280;4985;49.092;8.542;2022-12-11T07:25:00;98751.09;;;11.80;54.56
9893;BME280;4985;49.092;8.542;2022-12-11T07:27:28;98756.38;;;11.80;54.56
9893;BME280;4985;49.092;8.542;2022-12-11T07:29:54;98757.34;;;11.79;54.54
9893;BME280;4985;49.092;8.542;2022-12-11T07:32:21;98755.56;;;11.79;54.54
9893;BME280;4985;49.092;8.542;2022-12-11T07:34:47;98759.97;;;11.79;54.55
9893;BME280;4985;49.092;8.542;2022-12-11T07:37:14;98764.44;;;11.78;54.56
9893;BME280;4985;49.092;8.542;2022-12-11T07:39:40;98766.09;;;11.79;54.55
9893;BME280;4985;49.092;8.542;2022-12-11T07:42:07;98764.44;;;11.78;54.56
9893;BME280;4985;49.092;8.542;2022-12-11T07:44:35;98768.88;;;11.78;54.56
9893;BME280;4985;49.092;8.542;2022-12-11T07:47:02;98766.41;;;11.76;54.58
9893;BME280;4985;49.092;8.542;2022-12-11T07:49:28;98760.31;;;11.76;54.58
9893;BME280;4985;49.092;8.542;2022-12-11T07:51:55;98763.97;;;11.75;54.59
9893;BME280;4985;49.092;8.542;2022-12-11T07:54:21;98753.41;;;11.75;54.60
9893;BME280;4985;49.092;8.542;2022-12-11T07:56:48;98767.41;;;11.75;54.59
9893;BME280;4985;49.092;8.542;2022-12-11T07:59:15;98757.88;;;11.74;54.60
9893;BME280;4985;49.092;8.542;2022-12-11T08:01:43;98753.41;;;11.75;54.60
9893;BME280;4985;49.092;8.542;2022-12-11T08:04:11;98758.69;;;11.75;54.59
9893;BME280;4985;49.092;8.542;2022-12-11T08:06:39;98765.78;;;11.74;54.60
9893;BME280;4985;49.092;8.542;2022-12-11T08:09:10;98762.34;;;11.74;54.62
9893;BME280;4985;49.092;8.542;2022-12-11T08:11:36;98754.16;;;11.69;54.61
9893;BME280;4985;49.092;8.542;2022-12-11T08:14:03;98765.16;;;11.72;54.65
9893;BME280;4985;49.092;8.542;2022-12-11T08:16:31;98766.97;;;11.72;54.66
9893;BME280;4985;49.092;8.542;2022-12-11T08:18:59;98758.63;;;11.68;54.62
9893;BME280;4985;49.092;8.542;2022-12-11T08:21:27;98765.97;;;11.73;54.62
9893;BME280;4985;49.092;8.542;2022-12-11T08:23:53;98765.97;;;11.73;54.62
9893;BME280;4985;49.092;8.542;2022-12-11T08:26:21;98766.78;;;11.73;54.60
9893;BME280;4985;49.092;8.542;2022-12-11T08:28:48;98765.97;;;11.73;54.59
9893;BME280;4985;49.092;8.542;2022-12-11T08:31:16;98764.34;;;11.72;54.60
9893;BME280;4985;49.092;8.542;2022-12-11T08:33:43;98768.78;;;11.71;54.60
9893;BME280;4985;49.092;8.542;2022-12-11T08:36:12;98770.44;;;11.72;54.63
9893;BME280;4985;49.092;8.542;2022-12-11T08:38:40;98757.44;;;11.71;54.61
9893;BME280;4985;49.092;8.542;2022-12-11T08:41:08;98762.72;;;11.71;54.62
9893;BME280;4985;49.092;8.542;2022-12-11T08:43:35;98755.81;;;11.70;54.66
9893;BME280;4985;49.092;8.542;2022-12-11T08:46:02;98747.59;;;11.64;54.67
9893;BME280;4985;49.092;8.542;2022-12-11T08:48:28;98755.81;;;11.70;54.66
9893;BME280;4985;49.092;8.542;2022-12-11T08:50:58;98758.44;;;11.70;54.65
9893;BME280;4985;49.092;8.542;2022-12-11T08:53:27;98761.06;;;11.70;54.64
9893;BME280;4985;49.092;8.542;2022-12-11T08:55:54;98759.44;;;11.69;54.66
9893;BME280;4985;49.092;8.542;2022-12-11T08:58:25;98754.16;;;11.69;54.67
9893;BME280;4985;49.092;8.542;2022-12-11T09:00:52;98757.00;;;11.67;54.72
9893;BME280;4985;49.092;8.542;2022-12-11T09:03:18;98754.34;;;11.67;54.73
9893;BME280;4985;49.092;8.542;2022-12-11T09:05:45;98747.41;;;11.66;54.73
9893;BME280;4985;49.092;8.542;2022-12-11T09:08:12;98741.31;;;11.65;54.74
9893;BME280;4985;49.092;8.542;2022-12-11T09:10:40;98743.00;;;11.66;54.73
9893;BME280;4985;49.092;8.542;2022-12-11T09:13:06;98745.78;;;11.65;54.75
9893;BME280;4985;49.092;8.542;2022-12-11T09:15:33;98737.06;;;11.64;54.77
9893;BME280;4985;49.092;8.542;2022-12-11T09:18:00;98745.16;;;11.63;54.80
9893;BME280;4985;49.092;8.542;2022-12-11T09:20:26;98739.06;;;11.62;54.82
9893;BME280;4985;49.092;8.542;2022-12-11T09:22:53;98737.06;;;11.64;54.81
9893;BME280;4985;49.092;8.542;2022-12-11T09:25:19;98737.06;;;11.64;54.77
9893;BME280;4985;49.092;8.542;2022-12-11T09:27:47;98735.25;;;11.65;54.75
9893;BME280;4985;49.092;8.542;2022-12-11T09:30:14;98735.25;;;11.65;54.75
9893;BME280;4985;49.092;8.542;2022-12-11T09:32:41;98732.78;;;11.63;54.74
9893;BME280;4985;49.092;8.542;2022-12-11T09:35:08;98727.53;;;11.63;54.74
9893;BME280;4985;49.092;8.542;2022-12-11T09:37:35;98737.88;;;11.65;54.74
9893;BME280;4985;49.092;8.542;2022-12-11T09:40:02;98733.59;;;11.64;54.74
9893;BME280;4985;49.092;8.542;2022-12-11T09:42:36;98730.16;;;11.63;54.74
9893;BME280;4985;49.092;8.542;2022-12-11T09:45:13;98728.53;;;11.62;54.77
9893;BME280;4985;49.092;8.542;2022-12-11T09:47:43;98729.34;;;11.63;54.76
9893;BME280;4985;49.092;8.542;2022-12-11T09:50:14;98731.78;;;11.64;54.76
9893;BME280;4985;49.092;8.542;2022-12-11T09:52:53;98730.16;;;11.63;54.74
9893;BME280;4985;49.092;8.542;2022-12-11T09:55:23;98724.88;;;11.63;54.77
9893;BME280;4985;49.092;8.542;2022-12-11T09:57:58;98723.88;;;11.64;54.75
9893;BME280;4985;49.092;8.542;2022-12-11T10:00:36;98726.50;;;11.64;54.74
9893;BME280;4985;49.092;8.542;2022-12-11T10:03:34;98723.88;;;11.64;54.73
9893;BME280;4985;49.092;8.542;2022-12-11T10:06:11;98729.81;;;11.66;54.70
9893;BME280;4985;49.092;8.542;2022-12-11T10:08:44;98722.88;;;11.65;54.70
9893;BME280;4985;49.092;8.542;2022-12-11T10:11:32;98715.97;;;11.64;54.70
9893;BME280;4985;49.092;8.542;2022-12-11T10:14:09;98722.25;;;11.63;54.75
9893;BME280;4985;49.092;8.542;2022-12-11T10:16:44;98717.97;;;11.62;54.75
9893;BME280;4985;49.092;8.542;2022-12-11T10:19:15;98708.25;;;11.63;54.76
9893;BME280;4985;49.092;8.542;2022-12-11T10:21:43;98707.25;;;11.64;54.73
9893;BME280;4985;49.092;8.542;2022-12-11T10:24:15;98703.78;;;11.63;54.72
9893;BME280;4985;49.092;8.542;2022-12-11T10:26:45;98706.44;;;11.63;54.74
9893;BME280;4985;49.092;8.542;2022-12-11T10:29:14;98702.16;;;11.62;54.77
9893;BME280;4985;49.092;8.542;2022-12-11T10:31:45;98698.53;;;11.63;54.73
9893;BME280;4985;49.092;8.542;2022-12-11T10:34:21;98694.88;;;11.64;54.69
9893;BME280;4985;49.092;8.542;2022-12-11T10:36:52;98699.00;;;11.67;54.68
9893;BME280;4985;49.092;8.542;2022-12-11T10:39:20;98702.59;;;11.66;54.66
9893;BME280;4985;49.092;8.542;2022-12-11T10:41:48;98704.25;;;11.67;54.66
9893;BME280;4985;49.092;8.542;2022-12-11T10:44:18;98693.88;;;11.65;54.69
9893;BME280;4985;49.092;8.542;2022-12-11T10:46:47;98685.16;;;11.65;54.69
9893;BME280;4985;49.092;8.542;2022-12-11T10:49:23;98690.59;;;11.63;54.73
9893;BME280;4985;49.092;8.542;2022-12-11T10:51:51;98687.16;;;11.63;54.73
9893;BME280;4985;49.092;8.542;2022-12-11T10:54:28;98682.06;;;11.61;54.78
9893;BME280;4985;49.092;8.542;2022-12-11T10:56:56;98673.16;;;11.62;54.75
9893;BME280;4985;49.092;8.542;2022-12-11T10:59:29;98669.53;;;11.63;54.73
9893;BME280;4985;49.092;8.542;2022-12-11T11:01:59;98665.88;;;11.64;54.72
9893;BME280;4985;49.092;8.542;2022-12-11T11:04:29;98672.16;;;11.63;54.71
9893;BME280;4985;49.092;8.542;2022-12-11T11:07:01;98664.25;;;11.63;54.71
9893;BME280;4985;49.092;8.542;2022-12-11T11:09:29;98662.63;;;11.62;54.73
9893;BME280;4985;49.092;8.542;2022-12-11T11:11:56;98665.44;;;11.61;54.77
9893;BME280;4985;49.092;8.542;2022-12-11T11:14:22;98654.09;;;11.60;54.81
9893;BME280;4985;49.092;8.542;2022-12-11T11:16:50;98667.06;;;11.62;54.78
9893;BME280;4985;49.092;8.542;2022-12-11T11:19:23;98659.16;;;11.62;54.77
9893;BME280;4985;49.092;8.542;2022-12-11T11:21:54;98657.34;;;11.62;54.74
9893;BME280;4985;49.092;8.542;2022-12-11T11:24:26;98661.63;;;11.63;54.72
9893;BME280;4985;49.092;8.542;2022-12-11T11:26:54;98653.88;;;11.62;54.74
9893;BME280;4985;49.092;8.542;2022-12-11T11:29:26;98654.72;;;11.62;54.75
9893;BME280;4985;49.092;8.542;2022-12-11T11:31:53;98650.44;;;11.61;54.78
9893;BME280;4985;49.092;8.542;2022-12-11T11:34:21;98643.53;;;11.60;54.81
9893;BME280;4985;49.092;8.542;2022-12-11T11:36:55;98646.16;;;11.60;54.83
9893;BME280;4985;49.092;8.542;2022-12-11T11:39:26;98639.28;;;11.59;54.82
9893;BME280;4985;49.092;8.542;2022-12-11T11:42:00;98638.44;;;11.59;54.83
9893;BME280;4985;49.092;8.542;2022-12-11T11:44:32;98641.91;;;11.59;54.85
9893;BME280;4985;49.092;8.542;2022-12-11T11:47:04;98648.19;;;11.58;54.86
9893;BME280;4985;49.092;8.542;2022-12-11T11:49:45;98644.53;;;11.59;54.85
9893;BME280;4985;49.092;8.542;2022-12-11T11:52:16;98649.81;;;11.59;54.87
9893;BME280;4985;49.092;8.542;2022-12-11T11:54:54;98645.53;;;11.58;54.86
9893;BME280;4985;49.092;8.542;2022-12-11T11:57:28;98644.53;;;11.59;54.87
9893;BME280;4985;49.092;8.542;2022-12-11T12:00:02;98642.91;;;11.58;54.88
9893;BME280;4985;49.092;8.542;2022-12-11T12:02:34;98647.38;;;11.58;54.89
9893;BME280;4985;49.092;8.542;2022-12-11T12:05:02;98639.47;;;11.58;54.89
9893;BME280;4985;49.092;8.542;2022-12-11T12:07:36;98641.09;;;11.59;54.88
9893;BME280;4985;49.092;8.542;2022-12-11T12:10:14;98642.91;;;11.58;54.86
9893;BME280;4985;49.092;8.542;2022-12-11T12:12:49;98647.38;;;11.58;54.86
9893;BME280;4985;49.092;8.542;2022-12-11T12:15:23;98629.72;;;11.58;54.88
9893;BME280;4985;49.092;8.542;2022-12-11T12:17:56;98633.38;;;11.57;54.90
9893;BME280;4985;49.092;8.542;2022-12-11T12:20:31;98635.00;;;11.58;54.89
9893;BME280;4985;49.092;8.542;2022-12-11T12:23:29;98635.81;;;11.59;54.87
9893;BME280;4985;49.092;8.542;2022-12-11T12:26:06;98631.34;;;11.59;54.87
9893;BME280;4985;49.092;8.542;2022-12-11T12:28:38;98631.34;;;11.59;54.84
9893;BME280;4985;49.092;8.542;2022-12-11T12:31:18;98621.63;;;11.60;54.83
9893;BME280;4985;49.092;8.542;2022-12-11T12:33:54;98635.81;;;11.59;54.83
9893;BME280;4985;49.092;8.542;2022-12-11T12:36:33;98630.53;;;11.59;54.87
9893;BME280;4985;49.092;8.542;2022-12-11T12:39:10;98619.38;;;11.57;54.91
9893;BME280;4985;49.092;8.542;2022-12-11T12:41:48;98616.56;;;11.58;54.88
9893;BME280;4985;49.092;8.542;2022-12-11T12:44:21;98623.44;;;11.59;54.87
9893;BME280;4985;49.092;8.542;2022-12-11T12:46:53;98622.63;;;11.59;54.86
9893;BME280;4985;49.092;8.542;2022-12-11T12:49:29;98618.19;;;11.59;54.87
9893;BME280;4985;49.092;8.542;2022-12-11T12:52:01;98620.81;;;11.59;54.88
9893;BME280;4985;49.092;8.542;2022-12-11T12:54:29;98613.28;;;11.56;54.90
9893;BME280;4985;49.092;8.542;2022-12-11T12:56:58;98610.47;;;11.58;54.92
9893;BME280;4985;49.092;8.542;2022-12-11T12:59:26;98604.19;;;11.59;54.90
9893;BME280;4985;49.092;8.542;2022-12-11T13:01:55;98598.09;;;11.58;54.89
9893;BME280;4985;49.092;8.542;2022-12-11T13:04:41;98602.38;;;11.59;54.88
9893;BME280;4985;49.092;8.542;2022-12-11T13:07:18;98600.72;;;11.58;54.83
9893;BME280;4985;49.092;8.542;2022-12-11T13:10:03;98616.16;;;11.61;54.83
9893;BME280;4985;49.092;8.542;2022-12-11T13:12:41;98610.09;;;11.61;54.82
9893;BME280;4985;49.092;8.542;2022-12-11T13:15:25;98614.16;;;11.63;54.78
9893;BME280;4985;49.092;8.542;2022-12-11T13:17:52;98609.06;;;11.62;54.81
9893;BME280;4985;49.092;8.542;2022-12-11T13:20:22;98609.06;;;11.62;54.82
9893;BME280;4985;49.092;8.542;2022-12-11T13:22:55;98608.25;;;11.61;54.82
9893;BME280;4985;49.092;8.542;2022-12-11T13:25:25;98612.72;;;11.61;54.82
9893;BME280;4985;49.092;8.542;2022-12-11T13:28:03;98604.63;;;11.62;54.81
9893;BME280;4985;49.092;8.542;2022-12-11T13:30:30;98602.19;;;11.61;54.83
9893;BME280;4985;49.092;8.542;2022-12-11T13:33:02;98609.25;;;11.60;54.83
9893;BME280;4985;49.092;8.542;2022-12-11T13:35:31;98612.53;;;11.62;54.82